Site contains unofficial IBTrACS data. Visit the IBTrACS Website to access archived data.

1867 NOT_NAMED (1867046S15071)


IBTrACS version v04r00. Visit IBTrACS website for data access.
Please direct all questions to the IBTrACS Q and A forum

Storm track - Intensity - Wind Radii - Intensity Data - Source Data - All data

Summary Information

Storm ID 1867046S15071
Start Feb 14 18Z
End Feb 21 06Z
ATCF IDs
Track status Best track data.

Storm track plot

Map of storm track

Intensity plots

No Intensity information for this storm


Radial wind information

No radial wind information for this storm


Position and Intensity Table

BASIN ISO_TIME_________ NATURE LAT LON
degrees north degrees east
SI 1867-02-14 18:00:00 NR -14.70 71.20
SI 21:00:00 NR -14.87 70.96
SI 1867-02-15 00:00:00 NR -15.03 70.72
SI 03:00:00 NR -15.17 70.50
SI 06:00:00 NR -15.30 70.30
SI 09:00:00 NR -15.41 70.13
SI 12:00:00 NR -15.50 69.98
SI 15:00:00 NR -15.59 69.84
SI 18:00:00 NR -15.70 69.70
SI 21:00:00 NR -15.84 69.53
SI 1867-02-16 00:00:00 NR -15.98 69.36
SI 03:00:00 NR -16.14 69.18
SI 06:00:00 NR -16.30 69.00
SI 09:00:00 NR -16.45 68.83
SI 12:00:00 NR -16.59 68.66
SI 15:00:00 NR -16.74 68.49
SI 18:00:00 NR -16.90 68.30
SI 21:00:00 NR -17.07 68.09
SI 1867-02-17 00:00:00 NR -17.24 67.86
SI 03:00:00 NR -17.42 67.63
SI 06:00:00 NR -17.60 67.40
SI 09:00:00 NR -17.78 67.18
SI 12:00:00 NR -17.96 66.97
SI 15:00:00 NR -18.13 66.77
SI 18:00:00 NR -18.30 66.60
SI 21:00:00 NR -18.45 66.47
SI 1867-02-18 00:00:00 NR -18.60 66.35
SI 03:00:00 NR -18.75 66.23
SI 06:00:00 NR -18.90 66.10
SI 09:00:00 NR -19.06 65.92
SI 12:00:00 NR -19.24 65.72
SI 15:00:00 NR -19.41 65.50
SI 18:00:00 NR -19.60 65.30
SI 21:00:00 NR -19.80 65.11
SI 1867-02-19 00:00:00 NR -20.00 64.93
SI 03:00:00 NR -20.20 64.76
SI 06:00:00 NR -20.40 64.60
SI 09:00:00 NR -20.58 64.43
SI 12:00:00 NR -20.75 64.28
SI 15:00:00 NR -20.92 64.13
SI 18:00:00 NR -21.10 64.00
SI 21:00:00 NR -21.30 63.89
SI 1867-02-20 00:00:00 NR -21.50 63.80
SI 03:00:00 NR -21.70 63.71
SI 06:00:00 NR -21.90 63.60
SI 09:00:00 NR -22.07 63.46
SI 12:00:00 NR -22.24 63.30
SI 15:00:00 NR -22.41 63.14
SI 18:00:00 NR -22.60 63.00
SI 21:00:00 NR -22.81 62.88
SI 1867-02-21 00:00:00 NR -23.03 62.78
SI 03:00:00 NR -23.26 62.68
SI 06:00:00 NR -23.50 62.60

Source Information

Agency Information
USA
TOKYO
CMA
HKO
NEWDELHI
REUNION
BOM
NADI
WELLINGTON
DS824
TD9636 cons_worldwide_trop_cyclone_18710101-19891231-005:Line=942
TD9635
NEUMANN
MLC

All available IBTrACS Data

SEASON BASIN SUBBASIN ISO_TIME_________ NATURE LAT LON DIST2LAND LANDFALL IFLAG USA SSHS TD9636 LAT TD9636 LON TD9636 STAGE STORM SPEED STORM DIR
Year degrees north degrees east km km 1 degrees north degrees east kts degrees
1867 SI MM 1867-02-14 18:00:00 NR -14.70 71.20 1552 1523 __________O___ -1 -14.70 71.20 7 6 235
1867 SI MM 21:00:00 NR -14.87 70.96 1523 1489 __________P___ -1 -14.87 70.96 7 6 235
1867 SI MM 1867-02-15 00:00:00 NR -15.03 70.72 1489 1460 __________P___ -1 -15.03 70.72 7 5 235
1867 SI MM 03:00:00 NR -15.17 70.50 1460 1436 __________P___ -1 -15.17 70.50 7 5 236
1867 SI MM 06:00:00 NR -15.30 70.30 1436 1412 __________O___ -1 -15.30 70.30 7 4 236
1867 SI MM 09:00:00 NR -15.41 70.13 1412 1397 __________P___ -1 -15.41 70.13 7 4 237
1867 SI MM 12:00:00 NR -15.50 69.98 1397 1383 __________P___ -1 -15.50 69.98 7 3 236
1867 SI MM 15:00:00 NR -15.59 69.84 1373 1359 __________P___ -1 -15.59 69.84 7 3 234
1867 SI MM 18:00:00 NR -15.70 69.70 1359 1335 __________O___ -1 -15.70 69.70 7 4 231
1867 SI MM 21:00:00 NR -15.84 69.53 1335 1316 __________P___ -1 -15.84 69.53 7 4 229
1867 SI MM 1867-02-16 00:00:00 NR -15.98 69.36 1316 1292 __________P___ -1 -15.98 69.36 7 5 228
1867 SI MM 03:00:00 NR -16.14 69.18 1292 1263 __________P___ -1 -16.14 69.18 7 5 227
1867 SI MM 06:00:00 NR -16.30 69.00 1263 1239 __________O___ -1 -16.30 69.00 7 5 227
1867 SI MM 09:00:00 NR -16.45 68.83 1239 1221 __________P___ -1 -16.45 68.83 7 4 228
1867 SI MM 12:00:00 NR -16.59 68.66 1221 1197 __________P___ -1 -16.59 68.66 7 4 228
1867 SI MM 15:00:00 NR -16.74 68.49 1197 1169 __________P___ -1 -16.74 68.49 7 5 229
1867 SI MM 18:00:00 NR -16.90 68.30 1169 1142 __________O___ -1 -16.90 68.30 7 5 230
1867 SI MM 21:00:00 NR -17.07 68.09 1142 1118 __________P___ -1 -17.07 68.09 7 5 231
1867 SI MM 1867-02-17 00:00:00 NR -17.24 67.86 1118 1080 __________P___ -1 -17.24 67.86 7 6 231
1867 SI MM 03:00:00 NR -17.42 67.63 1080 1053 __________P___ -1 -17.42 67.63 7 6 231
1867 SI MM 06:00:00 NR -17.60 67.40 1053 1026 __________O___ -1 -17.60 67.40 7 6 230
1867 SI MM 09:00:00 NR -17.78 67.18 1026 1003 __________P___ -1 -17.78 67.18 7 5 229
1867 SI MM 12:00:00 NR -17.96 66.97 999 976 __________P___ -1 -17.96 66.97 7 5 228
1867 SI MM 15:00:00 NR -18.13 66.77 976 950 __________P___ -1 -18.13 66.77 7 5 226
1867 SI MM 18:00:00 NR -18.30 66.60 950 937 __________O___ -1 -18.30 66.60 7 4 223
1867 SI MM 21:00:00 NR -18.45 66.47 934 921 __________P___ -1 -18.45 66.47 7 4 218
1867 SI MM 1867-02-18 00:00:00 NR -18.60 66.35 911 898 __________P___ -1 -18.60 66.35 7 4 217
1867 SI MM 03:00:00 NR -18.75 66.23 898 883 __________P___ -1 -18.75 66.23 7 4 218
1867 SI MM 06:00:00 NR -18.90 66.10 883 858 __________O___ -1 -18.90 66.10 7 4 223
1867 SI MM 09:00:00 NR -19.06 65.92 858 835 __________P___ -1 -19.06 65.92 7 5 227
1867 SI MM 12:00:00 NR -19.24 65.72 835 811 __________P___ -1 -19.24 65.72 7 5 228
1867 SI MM 15:00:00 NR -19.41 65.50 811 787 __________P___ -1 -19.41 65.50 7 5 227
1867 SI MM 18:00:00 NR -19.60 65.30 787 764 __________O___ -1 -19.60 65.30 7 5 224
1867 SI MM 21:00:00 NR -19.80 65.11 764 741 __________P___ -1 -19.80 65.11 7 5 221
1867 SI MM 1867-02-19 00:00:00 NR -20.00 64.93 741 730 __________P___ -1 -20.00 64.93 7 5 219
1867 SI MM 03:00:00 NR -20.20 64.76 730 708 __________P___ -1 -20.20 64.76 7 5 218
1867 SI MM 06:00:00 NR -20.40 64.60 708 688 __________O___ -1 -20.40 64.60 7 5 220
1867 SI MM 09:00:00 NR -20.58 64.43 688 678 __________P___ -1 -20.58 64.43 7 5 221
1867 SI MM 12:00:00 NR -20.75 64.28 678 659 __________P___ -1 -20.75 64.28 7 4 219
1867 SI MM 15:00:00 NR -20.92 64.13 659 649 __________P___ -1 -20.92 64.13 7 4 216
1867 SI MM 18:00:00 NR -21.10 64.00 650 642 __________O___ -1 -21.10 64.00 7 4 211
1867 SI MM 21:00:00 NR -21.30 63.89 643 635 __________P___ -1 -21.30 63.89 7 4 205
1867 SI MM 1867-02-20 00:00:00 NR -21.50 63.80 637 629 __________P___ -1 -21.50 63.80 7 4 203
1867 SI MM 03:00:00 NR -21.70 63.71 632 624 __________P___ -1 -21.70 63.71 7 4 205
1867 SI MM 06:00:00 NR -21.90 63.60 627 620 __________O___ -1 -21.90 63.60 7 4 212
1867 SI MM 09:00:00 NR -22.07 63.46 624 608 __________P___ -1 -22.07 63.46 7 4 219
1867 SI MM 12:00:00 NR -22.24 63.30 608 602 __________P___ -1 -22.24 63.30 7 4 220
1867 SI MM 15:00:00 NR -22.41 63.14 596 591 __________P___ -1 -22.41 63.14 7 5 218
1867 SI MM 18:00:00 NR -22.60 63.00 596 591 __________O___ -1 -22.60 63.00 7 5 212
1867 SI MM 21:00:00 NR -22.81 62.88 595 591 __________P___ -1 -22.81 62.88 7 5 206
1867 SI MM 1867-02-21 00:00:00 NR -23.03 62.78 596 592 __________P___ -1 -23.03 62.78 7 5 201
1867 SI MM 03:00:00 NR -23.26 62.68 603 600 __________P___ -1 -23.26 62.68 7 5 199
1867 SI MM 06:00:00 NR -23.50 62.60 606 __________O___ -1 -23.50 62.60 7 5 199